createdAt,value
2023-04-07T00:01:40.591Z,5.63
2023-04-07T00:04:08.165Z,5.30
2023-04-07T00:06:35.550Z,5.40
2023-04-07T00:09:02.750Z,5.70
2023-04-07T00:11:29.895Z,5.27
2023-04-07T00:13:57.087Z,5.33
2023-04-07T00:16:24.651Z,5.23
2023-04-07T00:18:51.717Z,5.73
2023-04-07T00:21:18.810Z,5.00
2023-04-07T00:23:46.981Z,5.13
2023-04-07T00:26:14.307Z,5.30
2023-04-07T00:28:41.550Z,5.43
2023-04-07T00:31:08.684Z,5.70
2023-04-07T00:33:35.857Z,5.47
2023-04-07T00:36:02.988Z,5.60
2023-04-07T00:38:30.548Z,5.57
2023-04-07T00:40:59.136Z,5.70
2023-04-07T00:43:26.299Z,5.77
2023-04-07T00:45:53.687Z,5.77
2023-04-07T00:48:21.260Z,6.10
2023-04-07T00:50:48.411Z,5.53
2023-04-07T00:53:16.126Z,5.65
2023-04-07T00:55:43.478Z,5.80
2023-04-07T00:58:11.054Z,5.67
2023-04-07T01:00:44.893Z,5.37
2023-04-07T01:03:18.987Z,5.23
2023-04-07T01:06:00.330Z,5.37
2023-04-07T01:08:27.374Z,5.57
2023-04-07T01:10:59.722Z,4.77
2023-04-07T01:13:26.820Z,5.33
2023-04-07T01:15:57.032Z,5.10
2023-04-07T01:18:30.248Z,5.00
2023-04-07T01:21:00.176Z,5.10
2023-04-07T01:23:37.572Z,5.20
2023-04-07T01:26:08.432Z,5.73
2023-04-07T01:28:44.565Z,4.93
2023-04-07T01:31:12.832Z,5.27
2023-04-07T01:33:40.646Z,5.17
2023-04-07T01:36:08.548Z,4.83
2023-04-07T01:38:35.966Z,4.97
2023-04-07T01:41:04.049Z,5.13
2023-04-07T01:43:31.883Z,5.27
2023-04-07T01:45:59.347Z,5.23
2023-04-07T01:48:26.644Z,4.47
2023-04-07T01:50:55.521Z,4.83
2023-04-07T01:53:23.619Z,4.60
2023-04-07T01:55:51.301Z,4.63
2023-04-07T01:58:18.434Z,5.03
2023-04-07T02:00:45.946Z,4.87
2023-04-07T02:03:24.504Z,4.57
2023-04-07T02:05:55.833Z,4.50
2023-04-07T02:08:25.141Z,4.33
2023-04-07T02:10:52.464Z,4.77
2023-04-07T02:13:21.196Z,4.83
2023-04-07T02:15:49.218Z,5.30
2023-04-07T02:18:17.147Z,4.87
2023-04-07T02:20:45.637Z,4.30
2023-04-07T02:23:13.600Z,4.60
2023-04-07T02:25:40.701Z,4.83
2023-04-07T02:28:07.977Z,4.87
2023-04-07T02:30:36.332Z,5.17
2023-04-07T02:33:03.662Z,4.90
2023-04-07T02:35:31.279Z,4.80
2023-04-07T02:37:58.363Z,4.37
2023-04-07T02:40:25.438Z,4.37
2023-04-07T02:42:52.537Z,4.40
2023-04-07T02:45:19.576Z,5.60
2023-04-07T02:47:46.697Z,5.03
2023-04-07T02:50:13.778Z,4.80
2023-04-07T02:52:40.969Z,4.73
2023-04-07T02:55:08.670Z,4.83
2023-04-07T02:57:36.032Z,4.27
2023-04-07T03:00:03.150Z,5.53
2023-04-07T03:02:30.853Z,5.17
2023-04-07T03:04:58.041Z,5.33
2023-04-07T03:07:25.399Z,4.80
2023-04-07T03:09:52.497Z,5.00
2023-04-07T03:12:19.580Z,4.90
2023-04-07T03:14:46.623Z,4.33
2023-04-07T03:17:13.751Z,4.70
2023-04-07T03:19:41.024Z,4.80
2023-04-07T03:22:08.113Z,4.83
2023-04-07T03:24:35.363Z,4.70
2023-04-07T03:27:02.612Z,4.60
2023-04-07T03:29:29.786Z,4.70
2023-04-07T03:31:56.975Z,4.70
2023-04-07T03:34:24.129Z,4.60
2023-04-07T03:36:51.297Z,5.20
2023-04-07T03:39:18.518Z,4.97
2023-04-07T03:41:45.656Z,5.00
2023-04-07T03:44:12.727Z,4.30
2023-04-07T03:46:39.803Z,5.13
2023-04-07T03:49:07.523Z,5.00
2023-04-07T03:51:34.779Z,4.83
2023-04-07T03:54:01.936Z,5.10
2023-04-07T03:56:29.128Z,4.73
2023-04-07T03:58:56.208Z,4.63
2023-04-07T04:01:23.305Z,4.90
2023-04-07T04:03:51.462Z,4.53
2023-04-07T04:06:18.945Z,4.73
2023-04-07T04:08:46.043Z,5.27
2023-04-07T04:11:13.148Z,5.10
2023-04-07T04:13:40.396Z,4.57
2023-04-07T04:16:07.896Z,5.03
2023-04-07T04:18:34.997Z,4.60
2023-04-07T04:21:02.108Z,4.23
2023-04-07T04:23:29.132Z,4.40
2023-04-07T04:25:56.903Z,4.50
2023-04-07T04:28:23.987Z,4.80
2023-04-07T04:30:51.070Z,4.57
2023-04-07T04:33:18.181Z,4.80
2023-04-07T04:35:45.963Z,4.97
2023-04-07T04:38:13.052Z,4.87
2023-04-07T04:40:40.618Z,4.97
2023-04-07T04:43:09.416Z,4.57
2023-04-07T04:45:36.651Z,4.60
2023-04-07T04:48:03.755Z,4.80
2023-04-07T04:50:30.845Z,5.07
2023-04-07T04:52:57.968Z,4.87
2023-04-07T04:55:25.102Z,5.00
2023-04-07T04:57:52.214Z,4.73
2023-04-07T05:00:19.494Z,4.43
2023-04-07T05:02:47.052Z,4.40
2023-04-07T05:05:14.442Z,4.50
2023-04-07T05:07:42.148Z,4.50
2023-04-07T05:10:09.686Z,4.70
2023-04-07T05:12:36.894Z,4.80
2023-04-07T05:15:04.102Z,4.50
2023-04-07T05:17:31.247Z,4.37
2023-04-07T05:19:58.325Z,5.20
2023-04-07T05:22:25.409Z,4.43
2023-04-07T05:24:52.579Z,4.90
2023-04-07T05:27:19.685Z,4.80
2023-04-07T05:29:46.797Z,4.77
2023-04-07T05:32:13.877Z,5.00
2023-04-07T05:34:41.228Z,5.60
2023-04-07T05:37:08.283Z,5.13
2023-04-07T05:39:35.702Z,5.03
2023-04-07T05:42:03.048Z,5.10
2023-04-07T05:44:30.281Z,5.00
2023-04-07T05:46:57.422Z,4.70
2023-04-07T05:49:24.544Z,4.47
2023-04-07T05:51:51.622Z,4.70
2023-04-07T05:54:18.987Z,5.03
2023-04-07T05:56:46.099Z,4.50
2023-04-07T05:59:13.226Z,4.70
2023-04-07T06:01:40.442Z,4.60
2023-04-07T06:04:07.579Z,4.83
2023-04-07T06:06:34.652Z,4.60
2023-04-07T06:09:01.790Z,4.80
2023-04-07T06:11:28.927Z,5.27
2023-04-07T06:13:56.072Z,5.17
2023-04-07T06:16:23.149Z,4.87
2023-04-07T06:18:51.286Z,5.20
2023-04-07T06:21:18.405Z,4.87
2023-04-07T06:23:45.514Z,5.43
2023-04-07T06:26:12.702Z,4.90
2023-04-07T06:28:39.966Z,5.03
2023-04-07T06:31:07.593Z,5.10
2023-04-07T06:33:34.858Z,5.30
2023-04-07T06:36:02.097Z,5.57
2023-04-07T06:38:29.189Z,5.00
2023-04-07T06:40:56.248Z,5.70
2023-04-07T06:43:23.386Z,5.63
2023-04-07T06:45:50.683Z,5.63
2023-04-07T06:48:17.822Z,5.70
2023-04-07T06:50:48.186Z,5.90
2023-04-07T06:53:15.443Z,5.60
2023-04-07T06:55:42.629Z,6.17
2023-04-07T06:58:09.939Z,5.80
2023-04-07T07:00:37.105Z,5.70
2023-04-07T07:03:04.365Z,5.53
2023-04-07T07:05:31.669Z,5.70
2023-04-07T07:07:58.742Z,6.03
2023-04-07T07:10:25.948Z,5.90
2023-04-07T07:12:53.088Z,6.30
2023-04-07T07:15:20.234Z,6.53
2023-04-07T07:17:47.452Z,6.37
2023-04-07T07:20:14.651Z,6.30
2023-04-07T07:22:41.830Z,6.50
2023-04-07T07:25:09.024Z,6.03
2023-04-07T07:27:36.377Z,6.17
2023-04-07T07:30:03.654Z,5.87
2023-04-07T07:32:30.851Z,6.60
2023-04-07T07:34:57.940Z,6.50
2023-04-07T07:37:25.565Z,6.10
2023-04-07T07:39:52.776Z,6.20
2023-04-07T07:42:20.034Z,6.43
2023-04-07T07:44:47.122Z,6.30
2023-04-07T07:47:14.223Z,6.17
2023-04-07T07:49:42.135Z,6.10
2023-04-07T07:52:10.366Z,6.30
2023-04-07T07:54:37.602Z,6.17
2023-04-07T07:57:06.167Z,5.67
2023-04-07T07:59:33.458Z,6.17
2023-04-07T08:02:00.876Z,6.03
2023-04-07T08:04:28.040Z,5.83
2023-04-07T08:06:56.015Z,6.17
2023-04-07T08:09:23.126Z,6.50
2023-04-07T08:11:51.146Z,6.33
2023-04-07T08:14:18.247Z,6.10
2023-04-07T08:16:45.880Z,6.07
2023-04-07T08:19:13.517Z,6.30
2023-04-07T08:21:40.688Z,6.30
2023-04-07T08:24:08.122Z,6.57
2023-04-07T08:26:35.262Z,5.70
2023-04-07T08:29:02.419Z,6.57
2023-04-07T08:31:29.581Z,6.33
2023-04-07T08:33:59.963Z,6.03
2023-04-07T08:36:28.154Z,6.87
2023-04-07T08:38:55.478Z,6.43
2023-04-07T08:41:28.584Z,6.20
2023-04-07T08:43:56.655Z,6.07
2023-04-07T08:46:26.041Z,6.20
2023-04-07T08:48:53.745Z,6.43
2023-04-07T08:51:33.887Z,6.43
2023-04-07T08:54:14.311Z,6.30
2023-04-07T08:56:42.280Z,6.50
2023-04-07T08:59:10.402Z,6.97
2023-04-07T09:01:37.910Z,7.37
2023-04-07T09:04:05.697Z,6.60
2023-04-07T09:06:32.845Z,5.93
2023-04-07T09:09:00.401Z,6.53
2023-04-07T09:11:27.874Z,6.63
2023-04-07T09:13:55.972Z,6.13
2023-04-07T09:16:26.456Z,6.27
2023-04-07T09:18:53.989Z,6.23
2023-04-07T09:21:21.272Z,6.13
2023-04-07T09:23:48.599Z,5.80
2023-04-07T09:26:24.837Z,5.30
2023-04-07T09:28:57.936Z,4.80
2023-04-07T09:31:43.985Z,4.50
2023-04-07T09:34:24.789Z,4.80
2023-04-07T09:36:51.862Z,4.50
2023-04-07T09:39:19.615Z,4.20
2023-04-07T09:41:46.975Z,4.20
2023-04-07T09:44:14.227Z,4.37
2023-04-07T09:46:51.736Z,4.40
2023-04-07T09:49:20.314Z,3.97
2023-04-07T09:52:07.854Z,4.30
2023-04-07T09:54:35.373Z,4.20
2023-04-07T09:57:03.437Z,4.20
2023-04-07T09:59:31.599Z,3.97
2023-04-07T10:01:59.039Z,4.50
2023-04-07T10:04:27.363Z,4.50
2023-04-07T10:06:54.623Z,3.80
2023-04-07T10:09:23.732Z,3.97
2023-04-07T10:11:51.310Z,3.90
2023-04-07T10:14:18.848Z,4.00
2023-04-07T10:16:47.337Z,4.30
2023-04-07T10:19:15.072Z,4.50
2023-04-07T10:21:42.729Z,4.50
2023-04-07T10:24:28.396Z,4.80
2023-04-07T10:26:58.707Z,4.17
2023-04-07T10:29:26.179Z,4.90
2023-04-07T10:31:53.517Z,4.33
2023-04-07T10:34:40.532Z,4.20
2023-04-07T10:37:10.648Z,4.20
2023-04-07T10:39:37.789Z,3.87
2023-04-07T10:42:04.876Z,3.97
2023-04-07T10:44:46.070Z,3.80
2023-04-07T10:47:14.206Z,3.60
2023-04-07T10:50:01.376Z,4.20
2023-04-07T10:52:28.456Z,4.17
2023-04-07T10:55:14.194Z,4.50
2023-04-07T10:58:01.240Z,4.37
2023-04-07T11:00:28.641Z,4.30
2023-04-07T11:02:57.161Z,4.80
2023-04-07T11:05:24.495Z,4.37
2023-04-07T11:07:55.096Z,5.00
2023-04-07T11:10:23.125Z,4.80
2023-04-07T11:13:00.534Z,4.13
2023-04-07T11:15:27.602Z,4.80
2023-04-07T11:18:07.565Z,4.23
2023-04-07T11:20:46.069Z,4.50
2023-04-07T11:23:13.991Z,4.37
2023-04-07T11:25:42.675Z,4.57
2023-04-07T11:28:12.748Z,4.70
2023-04-07T11:30:40.084Z,4.87
2023-04-07T11:33:08.749Z,4.80
2023-04-07T11:35:36.108Z,4.47
2023-04-07T11:38:04.320Z,4.80
2023-04-07T11:40:38.009Z,4.97
2023-04-07T11:43:25.385Z,4.40
2023-04-07T11:46:06.180Z,4.80
2023-04-07T11:48:34.412Z,4.63
2023-04-07T11:51:02.092Z,5.30
2023-04-07T11:53:30.250Z,4.83
2023-04-07T11:56:04.267Z,4.87
2023-04-07T11:58:31.660Z,4.53
2023-04-07T12:01:03.380Z,4.80
2023-04-07T12:03:30.634Z,4.33
2023-04-07T12:05:57.838Z,4.50
2023-04-07T12:08:37.555Z,5.33
2023-04-07T12:11:05.164Z,4.93
2023-04-07T12:13:32.698Z,4.87
2023-04-07T12:16:00.671Z,5.90
2023-04-07T12:18:28.231Z,5.97
2023-04-07T12:20:56.012Z,5.63
2023-04-07T12:23:23.480Z,5.80
2023-04-07T12:25:50.564Z,5.63
2023-04-07T12:28:17.600Z,5.60
2023-04-07T12:30:44.690Z,5.53
2023-04-07T12:33:11.800Z,5.57
2023-04-07T12:35:39.220Z,5.97
2023-04-07T12:38:06.578Z,5.90
2023-04-07T12:40:34.522Z,5.77
2023-04-07T12:43:02.075Z,6.20
2023-04-07T12:45:31.024Z,6.10
2023-04-07T12:47:58.381Z,5.60
2023-04-07T12:50:26.536Z,6.03
2023-04-07T12:52:54.674Z,6.23
2023-04-07T12:55:21.948Z,5.60
2023-04-07T12:57:49.026Z,5.33
2023-04-07T13:00:16.166Z,5.33
2023-04-07T13:02:43.720Z,5.43
2023-04-07T13:05:11.348Z,5.77
2023-04-07T13:07:38.410Z,5.93
2023-04-07T13:10:07.242Z,5.97
2023-04-07T13:12:34.472Z,5.47
2023-04-07T13:15:02.055Z,5.20
2023-04-07T13:17:29.487Z,5.27
2023-04-07T13:19:56.780Z,5.50
2023-04-07T13:22:24.730Z,4.90
2023-04-07T13:24:52.043Z,5.20
2023-04-07T13:27:19.225Z,5.07
2023-04-07T13:29:46.387Z,5.27
2023-04-07T13:32:14.684Z,4.87
2023-04-07T13:34:42.062Z,5.00
2023-04-07T13:37:09.143Z,5.20
2023-04-07T13:39:36.303Z,5.10
2023-04-07T13:42:04.482Z,5.40
2023-04-07T13:44:31.697Z,5.50
2023-04-07T13:46:58.914Z,5.67
2023-04-07T13:49:26.157Z,5.80
2023-04-07T13:51:53.199Z,5.80
2023-04-07T13:54:20.557Z,5.60
2023-04-07T13:56:50.988Z,5.53
2023-04-07T13:59:18.185Z,5.07
2023-04-07T14:01:45.288Z,5.33
2023-04-07T14:04:12.539Z,5.53
2023-04-07T14:06:39.648Z,5.57
2023-04-07T14:09:06.727Z,5.63
2023-04-07T14:11:34.807Z,5.30
2023-04-07T14:14:02.102Z,5.53
2023-04-07T14:16:29.181Z,4.50
2023-04-07T14:18:56.351Z,4.80
2023-04-07T14:21:23.646Z,4.37
2023-04-07T14:23:51.421Z,4.43
2023-04-07T14:26:18.471Z,4.43
2023-04-07T14:28:45.962Z,4.27
2023-04-07T14:31:14.288Z,4.30
2023-04-07T14:33:41.493Z,4.57
2023-04-07T14:36:08.740Z,6.00
2023-04-07T14:38:35.832Z,5.20
2023-04-07T14:43:33.484Z,5.03
2023-04-07T14:46:00.686Z,4.80
2023-04-07T14:48:28.144Z,5.20
2023-04-07T14:51:06.347Z,5.07
2023-04-07T14:53:36.618Z,5.63
2023-04-07T14:56:07.063Z,5.57
2023-04-07T14:58:37.077Z,5.20
2023-04-07T15:01:06.191Z,5.47
2023-04-07T15:03:35.184Z,5.30
2023-04-07T15:06:02.345Z,4.80
2023-04-07T15:08:29.402Z,5.40
2023-04-07T15:10:56.481Z,5.30
2023-04-07T15:13:23.611Z,5.33
2023-04-07T15:15:50.810Z,5.60
2023-04-07T15:18:17.939Z,5.60
2023-04-07T15:20:45.036Z,5.23
2023-04-07T15:23:14.633Z,5.00
2023-04-07T15:25:41.703Z,5.33
2023-04-07T15:28:08.776Z,4.83
2023-04-07T15:30:37.162Z,5.40
2023-04-07T15:33:04.736Z,5.40
2023-04-07T15:35:31.878Z,5.23
2023-04-07T15:37:59.009Z,5.20
2023-04-07T15:40:26.103Z,5.30
2023-04-07T15:42:53.184Z,5.60
2023-04-07T15:45:20.316Z,6.10
2023-04-07T15:47:47.465Z,5.80
2023-04-07T15:50:14.553Z,6.00
2023-04-07T15:52:41.680Z,5.73
2023-04-07T15:55:08.964Z,5.80
2023-04-07T15:57:36.262Z,6.10
2023-04-07T16:00:04.524Z,5.90
2023-04-07T16:02:31.797Z,6.37
2023-04-07T16:04:58.982Z,5.73
2023-04-07T16:07:26.503Z,5.87
2023-04-07T16:09:53.641Z,6.10
2023-04-07T16:12:22.317Z,6.27
2023-04-07T16:14:50.268Z,6.00
2023-04-07T16:17:17.442Z,6.20
2023-04-07T16:19:44.602Z,6.43
2023-04-07T16:22:11.669Z,6.47
2023-04-07T16:24:38.800Z,6.63
2023-04-07T16:27:05.901Z,6.20
2023-04-07T16:29:33.020Z,6.40
2023-04-07T16:32:00.510Z,6.23
2023-04-07T16:34:27.618Z,6.00
2023-04-07T16:36:54.715Z,6.33
2023-04-07T16:39:23.405Z,5.57
2023-04-07T16:41:51.881Z,5.37
2023-04-07T16:44:22.017Z,5.83
2023-04-07T16:46:49.195Z,4.77
2023-04-07T16:49:16.417Z,5.00
2023-04-07T16:51:43.464Z,5.10
2023-04-07T16:54:10.716Z,4.67
2023-04-07T16:56:37.859Z,5.27
2023-04-07T16:59:04.957Z,4.73
2023-04-07T17:01:32.152Z,4.33
2023-04-07T17:03:59.382Z,4.70
2023-04-07T17:06:27.452Z,4.63
2023-04-07T17:08:54.494Z,4.60
2023-04-07T17:11:21.687Z,4.70
2023-04-07T17:13:48.978Z,4.73
2023-04-07T17:16:16.387Z,4.90
2023-04-07T17:18:43.592Z,4.77
2023-04-07T17:21:10.662Z,4.97
2023-04-07T17:23:38.289Z,4.97
2023-04-07T17:26:05.467Z,4.67
2023-04-07T17:28:32.549Z,5.67
2023-04-07T17:30:59.732Z,4.93
2023-04-07T17:33:27.762Z,5.07
2023-04-07T17:35:55.998Z,5.10
2023-04-07T17:38:23.081Z,5.17
2023-04-07T17:40:50.416Z,5.77
2023-04-07T17:43:17.463Z,5.00
2023-04-07T17:45:44.510Z,5.53
2023-04-07T17:48:12.099Z,5.20
2023-04-07T17:50:39.368Z,5.27
2023-04-07T17:53:06.545Z,5.27
2023-04-07T17:55:33.648Z,5.20
2023-04-07T17:58:01.930Z,5.23
2023-04-07T18:00:29.779Z,5.60
2023-04-07T18:02:57.130Z,5.10
2023-04-07T18:05:24.691Z,5.87
2023-04-07T18:07:51.857Z,6.00
2023-04-07T18:10:18.913Z,5.37
2023-04-07T18:12:46.182Z,5.50
2023-04-07T18:15:14.000Z,5.53
2023-04-07T18:17:41.262Z,5.43
2023-04-07T18:20:08.617Z,5.80
2023-04-07T18:22:37.028Z,5.63
2023-04-07T18:25:04.239Z,6.20
2023-04-07T18:27:31.403Z,6.00
2023-04-07T18:29:58.549Z,6.20
2023-04-07T18:32:25.837Z,7.07
2023-04-07T18:34:56.446Z,6.20
2023-04-07T18:37:23.617Z,6.60
2023-04-07T18:39:52.158Z,6.50
2023-04-07T18:42:19.244Z,6.67
2023-04-07T18:44:46.375Z,6.33
2023-04-07T18:47:13.525Z,6.60
2023-04-07T18:49:40.630Z,6.80
2023-04-07T18:52:07.854Z,6.80
2023-04-07T18:54:35.239Z,6.80
2023-04-07T18:57:02.592Z,7.40
2023-04-07T18:59:29.696Z,7.40
2023-04-07T19:01:57.067Z,7.17
2023-04-07T19:04:24.897Z,6.97
2023-04-07T19:06:52.615Z,6.73
2023-04-07T19:09:19.731Z,6.57
2023-04-07T19:11:46.797Z,7.20
2023-04-07T19:14:14.125Z,6.67
2023-04-07T19:16:44.354Z,6.90
2023-04-07T19:19:13.079Z,6.50
2023-04-07T19:21:40.410Z,6.80
2023-04-07T19:24:07.853Z,6.60
2023-04-07T19:26:35.077Z,6.87
2023-04-07T19:29:03.476Z,6.73
2023-04-07T19:31:31.325Z,6.77
2023-04-07T19:33:58.661Z,7.07
2023-04-07T19:36:26.479Z,7.00
2023-04-07T19:38:53.677Z,6.30
2023-04-07T19:41:21.110Z,6.50
2023-04-07T19:43:48.727Z,6.87
2023-04-07T19:46:16.882Z,6.73
2023-04-07T19:48:44.042Z,6.50
2023-04-07T19:51:11.115Z,6.63
2023-04-07T19:53:38.249Z,6.63
2023-04-07T19:56:05.721Z,6.43
2023-04-07T19:58:34.307Z,5.57
2023-04-07T20:01:04.130Z,6.00
2023-04-07T20:03:31.998Z,5.93
2023-04-07T20:05:59.628Z,5.87
2023-04-07T20:08:26.791Z,4.97
2023-04-07T20:10:53.974Z,5.30
2023-04-07T20:13:21.161Z,5.00
2023-04-07T20:15:49.218Z,5.17
2023-04-07T20:18:19.182Z,4.63
2023-04-07T20:20:46.879Z,5.57
2023-04-07T20:23:15.899Z,5.13
2023-04-07T20:25:42.974Z,4.77
2023-04-07T20:28:10.225Z,4.97
2023-04-07T20:30:37.303Z,5.07
2023-04-07T20:33:04.487Z,5.37
2023-04-07T20:35:31.773Z,5.10
2023-04-07T20:38:00.194Z,5.37
2023-04-07T20:40:27.654Z,5.13
2023-04-07T20:42:54.709Z,5.40
2023-04-07T20:45:22.385Z,5.40
2023-04-07T20:47:50.040Z,5.53
2023-04-07T20:50:17.309Z,6.30
2023-04-07T20:52:44.409Z,6.50
2023-04-07T20:55:11.676Z,6.90
2023-04-07T20:57:42.122Z,7.03
2023-04-07T21:00:10.401Z,6.10
2023-04-07T21:02:37.838Z,6.87
2023-04-07T21:05:05.193Z,6.50
2023-04-07T21:07:32.274Z,6.73
2023-04-07T21:09:59.471Z,6.23
2023-04-07T21:12:26.552Z,6.43
2023-04-07T21:14:53.616Z,6.23
2023-04-07T21:17:20.708Z,6.40
2023-04-07T21:19:47.906Z,6.50
2023-04-07T21:22:15.296Z,6.00
2023-04-07T21:24:42.438Z,6.23
2023-04-07T21:27:09.486Z,5.97
2023-04-07T21:29:36.546Z,5.47
2023-04-07T21:32:03.601Z,6.00
2023-04-07T21:34:30.719Z,5.33
2023-04-07T21:36:57.768Z,5.50
2023-04-07T21:39:25.030Z,5.60
2023-04-07T21:41:52.729Z,5.67
2023-04-07T21:44:21.375Z,5.60
2023-04-07T21:46:48.614Z,6.10
2023-04-07T21:49:17.878Z,5.87
2023-04-07T21:51:45.201Z,5.70
2023-04-07T21:54:12.459Z,6.07
2023-04-07T21:56:39.656Z,5.60
2023-04-07T21:59:07.328Z,5.93
2023-04-07T22:01:34.595Z,5.87
2023-04-07T22:04:02.229Z,6.00
2023-04-07T22:06:29.474Z,5.73
2023-04-07T22:09:01.770Z,5.40
2023-04-07T22:11:29.617Z,5.57
2023-04-07T22:13:56.886Z,5.37
2023-04-07T22:16:24.063Z,4.83
2023-04-07T22:18:51.417Z,5.33
2023-04-07T22:21:18.518Z,5.60
2023-04-07T22:23:45.606Z,5.23
2023-04-07T22:26:12.700Z,5.33
2023-04-07T22:28:39.790Z,5.23
2023-04-07T22:31:06.930Z,5.50
2023-04-07T22:33:34.059Z,5.53
2023-04-07T22:36:01.265Z,5.53
2023-04-07T22:38:28.378Z,5.47
2023-04-07T22:40:55.433Z,5.60
2023-04-07T22:43:22.677Z,5.70
2023-04-07T22:45:49.750Z,5.90
2023-04-07T22:48:16.850Z,6.27
2023-04-07T22:50:43.953Z,5.97
2023-04-07T22:53:11.303Z,5.63
2023-04-07T22:55:38.407Z,5.90
2023-04-07T22:58:06.066Z,5.60
2023-04-07T23:00:33.546Z,5.77
2023-04-07T23:03:00.936Z,6.00
2023-04-07T23:05:28.222Z,6.27
2023-04-07T23:07:55.693Z,6.07
2023-04-07T23:10:22.784Z,6.03
2023-04-07T23:12:53.748Z,6.00
2023-04-07T23:15:20.900Z,5.93
2023-04-07T23:17:48.104Z,6.50
2023-04-07T23:20:15.336Z,6.37
2023-04-07T23:22:42.488Z,6.30
2023-04-07T23:25:09.717Z,6.40
2023-04-07T23:27:36.864Z,6.07
2023-04-07T23:30:04.532Z,6.40
2023-04-07T23:32:31.668Z,6.27
2023-04-07T23:34:58.877Z,6.27
2023-04-07T23:37:26.284Z,6.03
2023-04-07T23:39:53.362Z,6.40
2023-04-07T23:42:20.739Z,6.47
2023-04-07T23:44:48.097Z,6.97
2023-04-07T23:47:15.373Z,6.17
2023-04-07T23:49:42.511Z,7.03
2023-04-07T23:52:09.733Z,6.30
2023-04-07T23:54:36.968Z,7.00
2023-04-07T23:57:04.227Z,6.40
2023-04-07T23:59:31.331Z,6.73
